createdAt,value
2023-04-07T00:00:26.771Z,10.30
2023-04-07T00:02:53.508Z,10.30
2023-04-07T00:05:20.130Z,10.40
2023-04-07T00:07:55.880Z,10.40
2023-04-07T00:10:23.427Z,10.40
2023-04-07T00:12:49.879Z,10.40
2023-04-07T00:15:16.500Z,10.40
2023-04-07T00:17:43.040Z,10.40
2023-04-07T00:20:09.731Z,10.30
2023-04-07T00:22:36.187Z,10.30
2023-04-07T00:25:02.634Z,10.30
2023-04-07T00:27:29.146Z,10.40
2023-04-07T00:29:55.756Z,10.40
2023-04-07T00:32:22.588Z,10.40
2023-04-07T00:34:49.149Z,10.40
2023-04-07T00:37:15.665Z,10.40
2023-04-07T00:39:42.220Z,10.40
2023-04-07T00:42:08.691Z,10.50
2023-04-07T00:44:35.217Z,10.50
2023-04-07T00:47:01.803Z,10.50
2023-04-07T00:49:28.423Z,10.50
2023-04-07T00:51:55.974Z,10.60
2023-04-07T00:54:25.307Z,10.50
2023-04-07T00:56:52.857Z,10.50
2023-04-07T00:59:19.514Z,10.40
2023-04-07T01:01:58.349Z,10.30
2023-04-07T01:04:32.036Z,10.20
2023-04-07T01:07:06.198Z,10.10
2023-04-07T01:09:42.789Z,10.10
2023-04-07T01:12:18.060Z,10.10
2023-04-07T01:14:50.946Z,10.20
2023-04-07T01:17:18.909Z,10.20
2023-04-07T01:19:45.390Z,10.10
2023-04-07T01:22:21.017Z,10.10
2023-04-07T01:25:06.438Z,10.10
2023-04-07T01:27:32.920Z,10.10
2023-04-07T01:30:01.033Z,10.10
2023-04-07T01:32:27.903Z,10.00
2023-04-07T01:34:55.307Z,10.00
2023-04-07T01:37:22.353Z,9.90
2023-04-07T01:39:48.817Z,9.90
2023-04-07T01:42:15.547Z,10.00
2023-04-07T01:44:42.632Z,10.10
2023-04-07T01:47:09.476Z,10.10
2023-04-07T01:49:36.583Z,10.10
2023-04-07T01:52:04.405Z,10.10
2023-04-07T01:54:31.504Z,10.10
2023-04-07T01:56:58.012Z,10.10
2023-04-07T01:59:24.851Z,10.10
2023-04-07T02:01:51.550Z,10.10
2023-04-07T02:04:27.206Z,10.10
2023-04-07T02:06:55.934Z,10.00
2023-04-07T02:09:24.230Z,10.10
2023-04-07T02:11:52.586Z,10.10
2023-04-07T02:14:21.276Z,10.10
2023-04-07T02:16:49.165Z,10.20
2023-04-07T02:19:15.786Z,10.20
2023-04-07T02:21:43.594Z,10.20
2023-04-07T02:24:11.537Z,10.20
2023-04-07T02:26:38.270Z,10.20
2023-04-07T02:29:04.931Z,10.20
2023-04-07T02:31:31.651Z,10.20
2023-04-07T02:33:58.164Z,10.20
2023-04-07T02:36:24.640Z,10.20
2023-04-07T02:38:51.391Z,10.20
2023-04-07T02:41:18.248Z,10.20
2023-04-07T02:43:44.715Z,10.10
2023-04-07T02:46:11.243Z,10.10
2023-04-07T02:48:37.828Z,10.10
2023-04-07T02:51:04.347Z,10.10
2023-04-07T02:53:31.081Z,10.10
2023-04-07T02:55:57.542Z,10.00
2023-04-07T02:58:24.028Z,9.90
2023-04-07T03:00:51.009Z,9.80
2023-04-07T03:03:20.961Z,9.70
2023-04-07T03:05:47.607Z,9.60
2023-04-07T03:08:14.132Z,9.40
2023-04-07T03:10:40.844Z,9.30
2023-04-07T03:13:08.317Z,9.20
2023-04-07T03:15:34.895Z,9.20
2023-04-07T03:18:01.425Z,9.10
2023-04-07T03:20:27.921Z,9.20
2023-04-07T03:22:54.378Z,9.20
2023-04-07T03:25:21.475Z,9.20
2023-04-07T03:27:47.964Z,9.20
2023-04-07T03:30:14.582Z,9.30
2023-04-07T03:32:41.102Z,9.40
2023-04-07T03:35:07.918Z,9.30
2023-04-07T03:37:34.439Z,9.30
2023-04-07T03:40:01.158Z,9.20
2023-04-07T03:42:27.729Z,9.20
2023-04-07T03:44:54.211Z,9.20
2023-04-07T03:47:20.687Z,9.30
2023-04-07T03:49:47.182Z,9.30
2023-04-07T03:52:13.642Z,9.30
2023-04-07T03:54:40.343Z,9.30
2023-04-07T03:57:06.912Z,9.30
2023-04-07T03:59:33.403Z,9.30
2023-04-07T04:02:00.123Z,9.40
2023-04-07T04:04:26.738Z,9.50
2023-04-07T04:06:53.307Z,9.50
2023-04-07T04:09:20.760Z,9.40
2023-04-07T04:11:47.229Z,9.40
2023-04-07T04:14:13.718Z,9.40
2023-04-07T04:16:40.210Z,9.40
2023-04-07T04:19:06.711Z,9.40
2023-04-07T04:21:33.206Z,9.40
2023-04-07T04:23:59.644Z,9.40
2023-04-07T04:26:26.251Z,9.40
2023-04-07T04:28:53.015Z,9.40
2023-04-07T04:31:19.548Z,9.40
2023-04-07T04:33:46.381Z,9.30
2023-04-07T04:36:13.234Z,9.30
2023-04-07T04:38:39.785Z,9.30
2023-04-07T04:41:06.249Z,9.10
2023-04-07T04:43:32.704Z,9.00
2023-04-07T04:45:59.216Z,9.00
2023-04-07T04:48:25.699Z,9.00
2023-04-07T04:50:52.177Z,8.90
2023-04-07T04:53:18.617Z,8.90
2023-04-07T04:55:48.026Z,8.80
2023-04-07T04:58:14.479Z,8.80
2023-04-07T05:00:41.155Z,8.90
2023-04-07T05:03:07.807Z,8.90
2023-04-07T05:05:34.481Z,8.90
2023-04-07T05:08:01.022Z,8.80
2023-04-07T05:10:27.481Z,8.80
2023-04-07T05:12:54.010Z,8.90
2023-04-07T05:15:20.734Z,8.90
2023-04-07T05:17:50.563Z,8.90
2023-04-07T05:20:17.425Z,8.90
2023-04-07T05:22:43.945Z,8.90
2023-04-07T05:25:10.731Z,8.90
2023-04-07T05:27:37.211Z,8.90
2023-04-07T05:30:03.825Z,8.90
2023-04-07T05:32:30.354Z,8.90
2023-04-07T05:34:56.926Z,8.80
2023-04-07T05:37:23.378Z,8.80
2023-04-07T05:39:49.987Z,8.80
2023-04-07T05:42:16.460Z,8.80
2023-04-07T05:44:42.923Z,8.70
2023-04-07T05:47:09.452Z,8.80
2023-04-07T05:49:35.899Z,8.70
2023-04-07T05:52:06.064Z,8.70
2023-04-07T05:54:32.539Z,8.60
2023-04-07T05:56:59.016Z,8.60
2023-04-07T05:59:25.470Z,8.60
2023-04-07T06:01:51.997Z,8.60
2023-04-07T06:04:18.641Z,8.50
2023-04-07T06:06:45.281Z,8.50
2023-04-07T06:09:11.839Z,8.50
2023-04-07T06:11:38.329Z,8.50
2023-04-07T06:14:04.800Z,8.60
2023-04-07T06:16:31.412Z,8.70
2023-04-07T06:18:57.989Z,8.80
2023-04-07T06:21:25.354Z,8.80
2023-04-07T06:23:52.058Z,8.80
2023-04-07T06:26:18.633Z,8.80
2023-04-07T06:28:45.323Z,8.80
2023-04-07T06:31:11.799Z,8.90
2023-04-07T06:33:38.287Z,9.00
2023-04-07T06:36:04.844Z,9.10
2023-04-07T06:38:31.697Z,9.20
2023-04-07T06:40:58.181Z,9.20
2023-04-07T06:43:24.662Z,9.30
2023-04-07T06:45:51.269Z,9.40
2023-04-07T06:48:17.775Z,9.50
2023-04-07T06:50:47.500Z,9.50
2023-04-07T06:53:14.065Z,9.50
2023-04-07T06:55:40.746Z,9.40
2023-04-07T06:58:07.352Z,9.40
2023-04-07T07:00:33.870Z,9.50
2023-04-07T07:03:00.943Z,9.60
2023-04-07T07:05:27.645Z,9.60
2023-04-07T07:07:54.105Z,9.60
2023-04-07T07:10:22.450Z,9.50
2023-04-07T07:12:49.374Z,9.50
2023-04-07T07:15:15.954Z,9.50
2023-04-07T07:17:42.691Z,9.60
2023-04-07T07:20:09.519Z,9.70
2023-04-07T07:22:36.197Z,9.80
2023-04-07T07:25:03.283Z,9.80
2023-04-07T07:27:29.773Z,10.00
2023-04-07T07:29:56.373Z,10.10
